sensor_id;sensor_type;location;lat;lon;timestamp;P1;durP1;ratioP1;P2;durP2;ratioP2
14342;SDS011;7255;53.596;9.960;2023-01-26T00:01:35;77.90;;;32.67;;
14342;SDS011;7255;53.596;9.960;2023-01-26T00:04:01;64.20;;;30.63;;
14342;SDS011;7255;53.596;9.960;2023-01-26T00:06:28;64.93;;;30.27;;
14342;SDS011;7255;53.596;9.960;2023-01-26T00:08:54;71.23;;;32.10;;
14342;SDS011;7255;53.596;9.960;2023-01-26T00:11:22;70.73;;;32.40;;
14342;SDS011;7255;53.596;9.960;2023-01-26T00:13:51;65.07;;;31.57;;
14342;SDS011;7255;53.596;9.960;2023-01-26T00:16:18;62.73;;;30.40;;
14342;SDS011;7255;53.596;9.960;2023-01-26T00:18:46;65.93;;;29.97;;
14342;SDS011;7255;53.596;9.960;2023-01-26T00:21:13;63.77;;;29.93;;
14342;SDS011;7255;53.596;9.960;2023-01-26T00:23:40;61.17;;;29.93;;
14342;SDS011;7255;53.596;9.960;2023-01-26T00:26:08;61.23;;;30.73;;
14342;SDS011;7255;53.596;9.960;2023-01-26T00:28:35;64.27;;;30.43;;
14342;SDS011;7255;53.596;9.960;2023-01-26T00:31:02;62.00;;;30.07;;
14342;SDS011;7255;53.596;9.960;2023-01-26T00:33:28;52.10;;;27.30;;
14342;SDS011;7255;53.596;9.960;2023-01-26T00:35:56;63.57;;;28.07;;
14342;SDS011;7255;53.596;9.960;2023-01-26T00:38:23;57.27;;;27.80;;
14342;SDS011;7255;53.596;9.960;2023-01-26T00:40:49;55.27;;;27.00;;
14342;SDS011;7255;53.596;9.960;2023-01-26T00:43:16;59.83;;;28.70;;
14342;SDS011;7255;53.596;9.960;2023-01-26T00:45:42;58.17;;;27.20;;
14342;SDS011;7255;53.596;9.960;2023-01-26T00:48:08;56.93;;;28.43;;
14342;SDS011;7255;53.596;9.960;2023-01-26T00:50:35;59.77;;;26.43;;
14342;SDS011;7255;53.596;9.960;2023-01-26T00:53:02;56.63;;;29.57;;
14342;SDS011;7255;53.596;9.960;2023-01-26T00:55:29;54.53;;;26.87;;
14342;SDS011;7255;53.596;9.960;2023-01-26T00:57:57;58.77;;;27.73;;
14342;SDS011;7255;53.596;9.960;2023-01-26T01:00:23;60.50;;;27.73;;
14342;SDS011;7255;53.596;9.960;2023-01-26T01:02:49;60.97;;;30.63;;
14342;SDS011;7255;53.596;9.960;2023-01-26T01:05:16;63.80;;;28.67;;
14342;SDS011;7255;53.596;9.960;2023-01-26T01:07:42;61.67;;;29.60;;
14342;SDS011;7255;53.596;9.960;2023-01-26T01:10:10;58.07;;;28.37;;
14342;SDS011;7255;53.596;9.960;2023-01-26T01:12:36;54.80;;;28.73;;
14342;SDS011;7255;53.596;9.960;2023-01-26T01:15:03;53.53;;;26.30;;
14342;SDS011;7255;53.596;9.960;2023-01-26T01:17:30;55.77;;;27.43;;
14342;SDS011;7255;53.596;9.960;2023-01-26T01:19:56;57.77;;;27.27;;
14342;SDS011;7255;53.596;9.960;2023-01-26T01:22:22;61.87;;;29.43;;
14342;SDS011;7255;53.596;9.960;2023-01-26T01:24:49;57.67;;;28.33;;
14342;SDS011;7255;53.596;9.960;2023-01-26T01:27:16;59.53;;;28.30;;
14342;SDS011;7255;53.596;9.960;2023-01-26T01:29:42;60.13;;;28.90;;
14342;SDS011;7255;53.596;9.960;2023-01-26T01:32:09;55.47;;;26.10;;
14342;SDS011;7255;53.596;9.960;2023-01-26T01:34:35;58.53;;;27.83;;
14342;SDS011;7255;53.596;9.960;2023-01-26T01:37:01;58.13;;;29.03;;
14342;SDS011;7255;53.596;9.960;2023-01-26T01:39:28;58.70;;;27.93;;
14342;SDS011;7255;53.596;9.960;2023-01-26T01:41:54;55.43;;;26.70;;
14342;SDS011;7255;53.596;9.960;2023-01-26T01:44:22;61.50;;;27.87;;
14342;SDS011;7255;53.596;9.960;2023-01-26T01:46:51;53.60;;;27.27;;
14342;SDS011;7255;53.596;9.960;2023-01-26T01:49:21;56.33;;;26.93;;
14342;SDS011;7255;53.596;9.960;2023-01-26T01:51:51;64.47;;;27.53;;
14342;SDS011;7255;53.596;9.960;2023-01-26T01:54:24;62.23;;;28.87;;
14342;SDS011;7255;53.596;9.960;2023-01-26T01:56:56;57.57;;;27.97;;
14342;SDS011;7255;53.596;9.960;2023-01-26T01:59:26;56.10;;;27.00;;
14342;SDS011;7255;53.596;9.960;2023-01-26T02:01:55;54.33;;;28.63;;
14342;SDS011;7255;53.596;9.960;2023-01-26T02:04:22;60.07;;;27.20;;
14342;SDS011;7255;53.596;9.960;2023-01-26T02:06:51;59.77;;;28.73;;
14342;SDS011;7255;53.596;9.960;2023-01-26T02:09:21;57.20;;;28.23;;
14342;SDS011;7255;53.596;9.960;2023-01-26T02:12:13;58.90;;;27.97;;
14342;SDS011;7255;53.596;9.960;2023-01-26T02:14:44;56.90;;;27.57;;
14342;SDS011;7255;53.596;9.960;2023-01-26T02:17:11;55.93;;;26.60;;
14342;SDS011;7255;53.596;9.960;2023-01-26T02:19:39;53.73;;;26.67;;
14342;SDS011;7255;53.596;9.960;2023-01-26T02:22:16;51.87;;;26.57;;
14342;SDS011;7255;53.596;9.960;2023-01-26T02:24:52;50.87;;;24.40;;
14342;SDS011;7255;53.596;9.960;2023-01-26T02:27:26;53.13;;;25.63;;
14342;SDS011;7255;53.596;9.960;2023-01-26T02:29:55;49.87;;;25.00;;
14342;SDS011;7255;53.596;9.960;2023-01-26T02:32:23;51.13;;;25.63;;
14342;SDS011;7255;53.596;9.960;2023-01-26T02:34:54;49.10;;;24.10;;
14342;SDS011;7255;53.596;9.960;2023-01-26T02:37:21;52.67;;;25.43;;
14342;SDS011;7255;53.596;9.960;2023-01-26T02:39:48;51.97;;;25.37;;
14342;SDS011;7255;53.596;9.960;2023-01-26T02:42:20;49.93;;;25.07;;
14342;SDS011;7255;53.596;9.960;2023-01-26T02:45:07;48.97;;;22.60;;
14342;SDS011;7255;53.596;9.960;2023-01-26T02:47:35;49.87;;;24.80;;
14342;SDS011;7255;53.596;9.960;2023-01-26T02:50:02;53.40;;;24.53;;
14342;SDS011;7255;53.596;9.960;2023-01-26T02:52:28;53.83;;;25.43;;
14342;SDS011;7255;53.596;9.960;2023-01-26T02:54:55;52.73;;;24.17;;
14342;SDS011;7255;53.596;9.960;2023-01-26T02:57:40;52.90;;;24.10;;
14342;SDS011;7255;53.596;9.960;2023-01-26T03:00:08;46.90;;;22.83;;
14342;SDS011;7255;53.596;9.960;2023-01-26T03:02:36;48.30;;;23.53;;
14342;SDS011;7255;53.596;9.960;2023-01-26T03:05:03;49.87;;;24.37;;
14342;SDS011;7255;53.596;9.960;2023-01-26T03:07:30;50.73;;;25.63;;
14342;SDS011;7255;53.596;9.960;2023-01-26T03:09:56;48.83;;;24.47;;
14342;SDS011;7255;53.596;9.960;2023-01-26T03:12:23;50.17;;;26.03;;
14342;SDS011;7255;53.596;9.960;2023-01-26T03:14:50;49.07;;;24.33;;
14342;SDS011;7255;53.596;9.960;2023-01-26T03:17:41;57.43;;;26.43;;
14342;SDS011;7255;53.596;9.960;2023-01-26T03:20:08;49.60;;;23.47;;
14342;SDS011;7255;53.596;9.960;2023-01-26T03:22:53;51.13;;;25.47;;
14342;SDS011;7255;53.596;9.960;2023-01-26T03:25:37;52.80;;;25.60;;
14342;SDS011;7255;53.596;9.960;2023-01-26T03:28:21;55.00;;;25.03;;
14342;SDS011;7255;53.596;9.960;2023-01-26T03:30:47;49.73;;;24.37;;
14342;SDS011;7255;53.596;9.960;2023-01-26T03:33:15;54.03;;;25.93;;
14342;SDS011;7255;53.596;9.960;2023-01-26T03:35:42;53.97;;;25.23;;
14342;SDS011;7255;53.596;9.960;2023-01-26T03:38:08;57.40;;;27.20;;
14342;SDS011;7255;53.596;9.960;2023-01-26T03:40:35;55.23;;;27.20;;
14342;SDS011;7255;53.596;9.960;2023-01-26T03:43:19;52.27;;;24.87;;
14342;SDS011;7255;53.596;9.960;2023-01-26T03:46:03;54.33;;;25.40;;
14342;SDS011;7255;53.596;9.960;2023-01-26T03:48:49;50.67;;;23.77;;
14342;SDS011;7255;53.596;9.960;2023-01-26T03:51:33;53.93;;;25.70;;
14342;SDS011;7255;53.596;9.960;2023-01-26T03:54:17;48.37;;;24.97;;
14342;SDS011;7255;53.596;9.960;2023-01-26T03:57:01;54.37;;;24.23;;
14342;SDS011;7255;53.596;9.960;2023-01-26T03:59:27;58.90;;;25.17;;
14342;SDS011;7255;53.596;9.960;2023-01-26T04:02:03;48.70;;;26.23;;
14342;SDS011;7255;53.596;9.960;2023-01-26T04:04:48;55.13;;;25.53;;
14342;SDS011;7255;53.596;9.960;2023-01-26T04:07:32;50.10;;;22.97;;
14342;SDS011;7255;53.596;9.960;2023-01-26T04:10:16;51.60;;;22.93;;
14342;SDS011;7255;53.596;9.960;2023-01-26T04:12:42;50.40;;;23.77;;
14342;SDS011;7255;53.596;9.960;2023-01-26T04:15:09;52.33;;;24.00;;
14342;SDS011;7255;53.596;9.960;2023-01-26T04:17:53;42.67;;;23.23;;
14342;SDS011;7255;53.596;9.960;2023-01-26T04:20:38;45.17;;;23.10;;
14342;SDS011;7255;53.596;9.960;2023-01-26T04:23:23;50.37;;;23.37;;
14342;SDS011;7255;53.596;9.960;2023-01-26T04:25:49;46.70;;;21.67;;
14342;SDS011;7255;53.596;9.960;2023-01-26T04:28:15;45.00;;;21.30;;
14342;SDS011;7255;53.596;9.960;2023-01-26T04:30:41;46.97;;;23.47;;
14342;SDS011;7255;53.596;9.960;2023-01-26T04:33:08;44.97;;;22.17;;
14342;SDS011;7255;53.596;9.960;2023-01-26T04:35:35;43.93;;;21.80;;
14342;SDS011;7255;53.596;9.960;2023-01-26T04:38:02;40.13;;;20.70;;
14342;SDS011;7255;53.596;9.960;2023-01-26T04:40:29;43.77;;;21.40;;
14342;SDS011;7255;53.596;9.960;2023-01-26T04:42:55;45.17;;;21.83;;
14342;SDS011;7255;53.596;9.960;2023-01-26T04:45:21;42.00;;;21.00;;
14342;SDS011;7255;53.596;9.960;2023-01-26T04:47:48;41.47;;;20.30;;
14342;SDS011;7255;53.596;9.960;2023-01-26T04:50:14;41.20;;;21.57;;
14342;SDS011;7255;53.596;9.960;2023-01-26T04:52:41;41.87;;;21.07;;
14342;SDS011;7255;53.596;9.960;2023-01-26T04:55:09;45.27;;;22.27;;
14342;SDS011;7255;53.596;9.960;2023-01-26T04:57:36;41.73;;;20.70;;
14342;SDS011;7255;53.596;9.960;2023-01-26T05:00:02;41.47;;;20.47;;
14342;SDS011;7255;53.596;9.960;2023-01-26T05:02:29;45.23;;;21.43;;
14342;SDS011;7255;53.596;9.960;2023-01-26T05:04:55;39.37;;;19.63;;
14342;SDS011;7255;53.596;9.960;2023-01-26T05:07:22;40.70;;;20.37;;
14342;SDS011;7255;53.596;9.960;2023-01-26T05:09:48;40.13;;;19.83;;
14342;SDS011;7255;53.596;9.960;2023-01-26T05:12:16;39.30;;;20.17;;
14342;SDS011;7255;53.596;9.960;2023-01-26T05:15:02;36.70;;;19.53;;
14342;SDS011;7255;53.596;9.960;2023-01-26T05:17:29;39.47;;;21.50;;
14342;SDS011;7255;53.596;9.960;2023-01-26T05:19:55;41.70;;;20.90;;
14342;SDS011;7255;53.596;9.960;2023-01-26T05:22:21;36.83;;;19.63;;
14342;SDS011;7255;53.596;9.960;2023-01-26T05:24:47;38.67;;;19.63;;
14342;SDS011;7255;53.596;9.960;2023-01-26T05:27:14;41.43;;;19.77;;
14342;SDS011;7255;53.596;9.960;2023-01-26T05:29:48;42.03;;;20.43;;
14342;SDS011;7255;53.596;9.960;2023-01-26T05:32:15;37.13;;;18.87;;
14342;SDS011;7255;53.596;9.960;2023-01-26T05:34:41;35.23;;;18.67;;
14342;SDS011;7255;53.596;9.960;2023-01-26T05:37:07;35.50;;;18.40;;
14342;SDS011;7255;53.596;9.960;2023-01-26T05:39:34;32.87;;;18.40;;
14342;SDS011;7255;53.596;9.960;2023-01-26T05:42:00;32.23;;;17.53;;
14342;SDS011;7255;53.596;9.960;2023-01-26T05:44:26;32.40;;;17.50;;
14342;SDS011;7255;53.596;9.960;2023-01-26T05:46:55;36.50;;;18.70;;
14342;SDS011;7255;53.596;9.960;2023-01-26T05:49:21;35.67;;;17.97;;
14342;SDS011;7255;53.596;9.960;2023-01-26T05:51:47;37.73;;;19.13;;
14342;SDS011;7255;53.596;9.960;2023-01-26T05:54:14;37.80;;;18.23;;
14342;SDS011;7255;53.596;9.960;2023-01-26T05:56:40;34.63;;;18.10;;
14342;SDS011;7255;53.596;9.960;2023-01-26T05:59:06;38.57;;;18.80;;
14342;SDS011;7255;53.596;9.960;2023-01-26T06:01:33;39.60;;;19.67;;
14342;SDS011;7255;53.596;9.960;2023-01-26T06:04:00;32.80;;;17.63;;
14342;SDS011;7255;53.596;9.960;2023-01-26T06:06:27;35.33;;;18.37;;
14342;SDS011;7255;53.596;9.960;2023-01-26T06:08:53;35.97;;;18.93;;
14342;SDS011;7255;53.596;9.960;2023-01-26T06:11:19;37.63;;;18.77;;
14342;SDS011;7255;53.596;9.960;2023-01-26T06:13:46;37.73;;;18.30;;
14342;SDS011;7255;53.596;9.960;2023-01-26T06:16:13;35.60;;;18.93;;
14342;SDS011;7255;53.596;9.960;2023-01-26T06:18:39;38.50;;;20.07;;
14342;SDS011;7255;53.596;9.960;2023-01-26T06:21:07;31.93;;;17.93;;
14342;SDS011;7255;53.596;9.960;2023-01-26T06:23:33;38.57;;;18.37;;
14342;SDS011;7255;53.596;9.960;2023-01-26T06:26:00;30.80;;;18.00;;
14342;SDS011;7255;53.596;9.960;2023-01-26T06:28:27;32.10;;;18.03;;
14342;SDS011;7255;53.596;9.960;2023-01-26T06:30:57;36.73;;;18.83;;
14342;SDS011;7255;53.596;9.960;2023-01-26T06:33:24;34.77;;;17.47;;
14342;SDS011;7255;53.596;9.960;2023-01-26T06:35:50;34.10;;;17.60;;
14342;SDS011;7255;53.596;9.960;2023-01-26T06:38:19;35.10;;;17.20;;
14342;SDS011;7255;53.596;9.960;2023-01-26T06:40:46;34.63;;;18.23;;
14342;SDS011;7255;53.596;9.960;2023-01-26T06:43:12;33.90;;;16.93;;
14342;SDS011;7255;53.596;9.960;2023-01-26T06:45:38;37.77;;;18.20;;
14342;SDS011;7255;53.596;9.960;2023-01-26T06:48:05;37.20;;;17.73;;
14342;SDS011;7255;53.596;9.960;2023-01-26T06:50:32;37.43;;;16.63;;
14342;SDS011;7255;53.596;9.960;2023-01-26T06:53:02;33.87;;;17.47;;
14342;SDS011;7255;53.596;9.960;2023-01-26T06:55:50;36.97;;;17.57;;
14342;SDS011;7255;53.596;9.960;2023-01-26T06:58:16;33.50;;;16.50;;
14342;SDS011;7255;53.596;9.960;2023-01-26T07:00:43;34.20;;;18.47;;
14342;SDS011;7255;53.596;9.960;2023-01-26T07:03:09;30.40;;;16.60;;
14342;SDS011;7255;53.596;9.960;2023-01-26T07:05:36;29.73;;;16.63;;
14342;SDS011;7255;53.596;9.960;2023-01-26T07:08:02;36.33;;;18.20;;
14342;SDS011;7255;53.596;9.960;2023-01-26T07:10:31;38.23;;;18.07;;
14342;SDS011;7255;53.596;9.960;2023-01-26T07:12:59;29.47;;;16.70;;
14342;SDS011;7255;53.596;9.960;2023-01-26T07:15:25;30.93;;;16.70;;
14342;SDS011;7255;53.596;9.960;2023-01-26T07:17:51;47.27;;;18.90;;
14342;SDS011;7255;53.596;9.960;2023-01-26T07:20:18;39.40;;;19.20;;
14342;SDS011;7255;53.596;9.960;2023-01-26T07:22:45;36.93;;;17.73;;
14342;SDS011;7255;53.596;9.960;2023-01-26T07:25:11;39.90;;;18.37;;
14342;SDS011;7255;53.596;9.960;2023-01-26T07:27:37;34.03;;;17.37;;
14342;SDS011;7255;53.596;9.960;2023-01-26T07:30:06;33.10;;;17.63;;
14342;SDS011;7255;53.596;9.960;2023-01-26T07:32:33;33.57;;;16.90;;
14342;SDS011;7255;53.596;9.960;2023-01-26T07:34:59;33.20;;;17.33;;
14342;SDS011;7255;53.596;9.960;2023-01-26T07:37:26;32.17;;;16.10;;
14342;SDS011;7255;53.596;9.960;2023-01-26T07:39:52;33.30;;;17.07;;
14342;SDS011;7255;53.596;9.960;2023-01-26T07:42:19;33.70;;;17.47;;
14342;SDS011;7255;53.596;9.960;2023-01-26T07:44:45;31.00;;;15.53;;
14342;SDS011;7255;53.596;9.960;2023-01-26T07:47:13;32.13;;;17.23;;
14342;SDS011;7255;53.596;9.960;2023-01-26T07:49:39;31.43;;;17.00;;
14342;SDS011;7255;53.596;9.960;2023-01-26T07:52:06;32.53;;;17.33;;
14342;SDS011;7255;53.596;9.960;2023-01-26T07:54:33;31.77;;;17.10;;
14342;SDS011;7255;53.596;9.960;2023-01-26T07:56:59;33.70;;;16.23;;
14342;SDS011;7255;53.596;9.960;2023-01-26T07:59:26;32.00;;;15.97;;
14342;SDS011;7255;53.596;9.960;2023-01-26T08:01:52;36.90;;;18.40;;
14342;SDS011;7255;53.596;9.960;2023-01-26T08:04:20;30.43;;;15.93;;
14342;SDS011;7255;53.596;9.960;2023-01-26T08:06:46;30.43;;;16.63;;
14342;SDS011;7255;53.596;9.960;2023-01-26T08:09:13;29.53;;;16.27;;
14342;SDS011;7255;53.596;9.960;2023-01-26T08:11:40;33.80;;;16.50;;
14342;SDS011;7255;53.596;9.960;2023-01-26T08:14:06;37.20;;;17.70;;
14342;SDS011;7255;53.596;9.960;2023-01-26T08:16:32;30.07;;;16.13;;
14342;SDS011;7255;53.596;9.960;2023-01-26T08:18:58;32.40;;;16.00;;
14342;SDS011;7255;53.596;9.960;2023-01-26T08:21:26;31.63;;;16.60;;
14342;SDS011;7255;53.596;9.960;2023-01-26T08:23:52;31.40;;;16.83;;
14342;SDS011;7255;53.596;9.960;2023-01-26T08:26:19;29.00;;;15.43;;
14342;SDS011;7255;53.596;9.960;2023-01-26T08:28:46;31.50;;;16.37;;
14342;SDS011;7255;53.596;9.960;2023-01-26T08:31:14;29.60;;;15.60;;
14342;SDS011;7255;53.596;9.960;2023-01-26T08:33:43;29.03;;;15.80;;
14342;SDS011;7255;53.596;9.960;2023-01-26T08:36:12;29.07;;;15.70;;
14342;SDS011;7255;53.596;9.960;2023-01-26T08:38:40;29.13;;;16.33;;
14342;SDS011;7255;53.596;9.960;2023-01-26T08:41:07;28.77;;;15.60;;
14342;SDS011;7255;53.596;9.960;2023-01-26T08:43:34;29.13;;;17.00;;
14342;SDS011;7255;53.596;9.960;2023-01-26T08:46:00;26.23;;;14.87;;
14342;SDS011;7255;53.596;9.960;2023-01-26T08:48:27;27.53;;;15.17;;
14342;SDS011;7255;53.596;9.960;2023-01-26T08:50:55;27.53;;;14.53;;
14342;SDS011;7255;53.596;9.960;2023-01-26T08:53:23;24.77;;;13.67;;
14342;SDS011;7255;53.596;9.960;2023-01-26T08:55:51;22.73;;;11.77;;
14342;SDS011;7255;53.596;9.960;2023-01-26T08:58:17;21.93;;;11.47;;
14342;SDS011;7255;53.596;9.960;2023-01-26T09:00:44;21.93;;;11.33;;
14342;SDS011;7255;53.596;9.960;2023-01-26T09:03:10;19.30;;;11.23;;
14342;SDS011;7255;53.596;9.960;2023-01-26T09:05:37;18.93;;;11.30;;
14342;SDS011;7255;53.596;9.960;2023-01-26T09:08:06;21.30;;;12.20;;
14342;SDS011;7255;53.596;9.960;2023-01-26T09:10:33;18.00;;;10.83;;
14342;SDS011;7255;53.596;9.960;2023-01-26T09:13:01;17.57;;;10.70;;
14342;SDS011;7255;53.596;9.960;2023-01-26T09:15:28;20.83;;;10.50;;
14342;SDS011;7255;53.596;9.960;2023-01-26T09:17:54;17.87;;;11.13;;
14342;SDS011;7255;53.596;9.960;2023-01-26T09:20:21;17.97;;;10.83;;
14342;SDS011;7255;53.596;9.960;2023-01-26T09:22:47;18.13;;;10.83;;
14342;SDS011;7255;53.596;9.960;2023-01-26T09:56:46;20.43;;;11.27;;
14342;SDS011;7255;53.596;9.960;2023-01-26T09:59:15;18.93;;;10.10;;
14342;SDS011;7255;53.596;9.960;2023-01-26T10:01:50;21.53;;;11.33;;
14342;SDS011;7255;53.596;9.960;2023-01-26T10:04:21;21.23;;;11.33;;
14342;SDS011;7255;53.596;9.960;2023-01-26T10:06:57;23.97;;;11.43;;
14342;SDS011;7255;53.596;9.960;2023-01-26T10:09:27;23.67;;;12.37;;
14342;SDS011;7255;53.596;9.960;2023-01-26T10:12:00;20.87;;;11.20;;
14342;SDS011;7255;53.596;9.960;2023-01-26T10:14:30;19.93;;;11.53;;
14342;SDS011;7255;53.596;9.960;2023-01-26T10:17:01;24.13;;;12.13;;
14342;SDS011;7255;53.596;9.960;2023-01-26T10:19:30;21.97;;;11.50;;
14342;SDS011;7255;53.596;9.960;2023-01-26T10:22:02;19.40;;;10.40;;
14342;SDS011;7255;53.596;9.960;2023-01-26T10:24:35;28.10;;;11.90;;
14342;SDS011;7255;53.596;9.960;2023-01-26T10:27:05;23.90;;;11.70;;
14342;SDS011;7255;53.596;9.960;2023-01-26T10:29:35;28.73;;;12.77;;
14342;SDS011;7255;53.596;9.960;2023-01-26T10:32:02;31.03;;;13.83;;
14342;SDS011;7255;53.596;9.960;2023-01-26T10:34:28;25.03;;;12.93;;
14342;SDS011;7255;53.596;9.960;2023-01-26T10:36:55;26.87;;;12.60;;
14342;SDS011;7255;53.596;9.960;2023-01-26T10:39:42;29.87;;;13.03;;
14342;SDS011;7255;53.596;9.960;2023-01-26T10:42:23;26.47;;;13.37;;
14342;SDS011;7255;53.596;9.960;2023-01-26T10:44:52;27.90;;;12.80;;
14342;SDS011;7255;53.596;9.960;2023-01-26T10:47:19;29.63;;;13.50;;
14342;SDS011;7255;53.596;9.960;2023-01-26T10:49:46;33.77;;;13.70;;
14342;SDS011;7255;53.596;9.960;2023-01-26T10:52:14;26.30;;;12.93;;
14342;SDS011;7255;53.596;9.960;2023-01-26T10:54:42;34.97;;;13.70;;
14342;SDS011;7255;53.596;9.960;2023-01-26T10:57:16;39.20;;;14.47;;
14342;SDS011;7255;53.596;9.960;2023-01-26T10:59:51;32.90;;;14.33;;
14342;SDS011;7255;53.596;9.960;2023-01-26T11:02:22;34.13;;;14.60;;
14342;SDS011;7255;53.596;9.960;2023-01-26T11:05:02;34.87;;;14.20;;
14342;SDS011;7255;53.596;9.960;2023-01-26T11:07:39;35.27;;;14.47;;
14342;SDS011;7255;53.596;9.960;2023-01-26T11:10:21;27.83;;;12.80;;
14342;SDS011;7255;53.596;9.960;2023-01-26T11:12:50;29.47;;;12.93;;
14342;SDS011;7255;53.596;9.960;2023-01-26T11:15:35;50.83;;;13.70;;
14342;SDS011;7255;53.596;9.960;2023-01-26T11:18:04;42.37;;;13.17;;
14342;SDS011;7255;53.596;9.960;2023-01-26T11:20:45;31.93;;;14.07;;
14342;SDS011;7255;53.596;9.960;2023-01-26T11:23:18;30.23;;;14.23;;
14342;SDS011;7255;53.596;9.960;2023-01-26T11:28:52;33.33;;;15.03;;
14342;SDS011;7255;53.596;9.960;2023-01-26T11:31:29;37.90;;;13.67;;
14342;SDS011;7255;53.596;9.960;2023-01-26T11:34:09;28.60;;;12.77;;
14342;SDS011;7255;53.596;9.960;2023-01-26T11:36:51;28.87;;;12.93;;
14342;SDS011;7255;53.596;9.960;2023-01-26T11:39:32;29.53;;;13.27;;
14342;SDS011;7255;53.596;9.960;2023-01-26T11:42:07;31.47;;;12.57;;
14342;SDS011;7255;53.596;9.960;2023-01-26T11:47:51;26.63;;;11.70;;
14342;SDS011;7255;53.596;9.960;2023-01-26T11:50:27;23.43;;;12.43;;
14342;SDS011;7255;53.596;9.960;2023-01-26T11:53:05;34.77;;;12.90;;
14342;SDS011;7255;53.596;9.960;2023-01-26T11:55:55;30.43;;;12.07;;
14342;SDS011;7255;53.596;9.960;2023-01-26T11:58:32;36.03;;;13.50;;
14342;SDS011;7255;53.596;9.960;2023-01-26T12:01:05;35.67;;;12.97;;
14342;SDS011;7255;53.596;9.960;2023-01-26T12:03:40;32.50;;;12.97;;
14342;SDS011;7255;53.596;9.960;2023-01-26T12:06:14;46.57;;;13.23;;
14342;SDS011;7255;53.596;9.960;2023-01-26T12:08:43;37.47;;;13.90;;
14342;SDS011;7255;53.596;9.960;2023-01-26T12:11:14;34.80;;;14.27;;
14342;SDS011;7255;53.596;9.960;2023-01-26T12:13:49;32.73;;;14.03;;
14342;SDS011;7255;53.596;9.960;2023-01-26T12:16:22;40.60;;;14.80;;
14342;SDS011;7255;53.596;9.960;2023-01-26T12:18:58;33.67;;;14.60;;
14342;SDS011;7255;53.596;9.960;2023-01-26T12:21:35;41.27;;;14.70;;
14342;SDS011;7255;53.596;9.960;2023-01-26T12:24:04;35.60;;;18.10;;
14342;SDS011;7255;53.596;9.960;2023-01-26T12:26:38;39.97;;;15.77;;
14342;SDS011;7255;53.596;9.960;2023-01-26T12:29:12;41.20;;;18.17;;
14342;SDS011;7255;53.596;9.960;2023-01-26T12:31:45;47.87;;;17.97;;
14342;SDS011;7255;53.596;9.960;2023-01-26T12:34:16;32.67;;;16.20;;
14342;SDS011;7255;53.596;9.960;2023-01-26T12:36:47;56.10;;;17.37;;
14342;SDS011;7255;53.596;9.960;2023-01-26T12:39:23;39.93;;;16.47;;
14342;SDS011;7255;53.596;9.960;2023-01-26T12:42:00;42.20;;;16.50;;
14342;SDS011;7255;53.596;9.960;2023-01-26T12:44:36;47.77;;;15.40;;
14342;SDS011;7255;53.596;9.960;2023-01-26T12:47:07;45.87;;;15.80;;
14342;SDS011;7255;53.596;9.960;2023-01-26T12:49:41;28.87;;;13.47;;
14342;SDS011;7255;53.596;9.960;2023-01-26T12:52:13;27.13;;;11.70;;
14342;SDS011;7255;53.596;9.960;2023-01-26T12:54:44;34.57;;;12.17;;
14342;SDS011;7255;53.596;9.960;2023-01-26T12:57:15;28.77;;;12.03;;
14342;SDS011;7255;53.596;9.960;2023-01-26T12:59:45;33.57;;;12.37;;
14342;SDS011;7255;53.596;9.960;2023-01-26T13:02:19;36.97;;;13.07;;
14342;SDS011;7255;53.596;9.960;2023-01-26T13:04:52;35.57;;;12.80;;
14342;SDS011;7255;53.596;9.960;2023-01-26T13:07:29;29.87;;;14.20;;
14342;SDS011;7255;53.596;9.960;2023-01-26T13:10:19;26.57;;;11.90;;
14342;SDS011;7255;53.596;9.960;2023-01-26T13:12:48;21.70;;;11.13;;
14342;SDS011;7255;53.596;9.960;2023-01-26T13:15:16;21.03;;;11.03;;
14342;SDS011;7255;53.596;9.960;2023-01-26T13:17:47;26.30;;;10.73;;
14342;SDS011;7255;53.596;9.960;2023-01-26T13:20:27;26.93;;;11.73;;
14342;SDS011;7255;53.596;9.960;2023-01-26T13:26:18;23.63;;;10.70;;
14342;SDS011;7255;53.596;9.960;2023-01-26T13:31:57;18.30;;;9.27;;
14342;SDS011;7255;53.596;9.960;2023-01-26T13:34:25;20.47;;;8.93;;
14342;SDS011;7255;53.596;9.960;2023-01-26T13:36:57;14.93;;;9.10;;
14342;SDS011;7255;53.596;9.960;2023-01-26T13:39:29;19.57;;;8.47;;
14342;SDS011;7255;53.596;9.960;2023-01-26T13:41:59;19.53;;;9.80;;
14342;SDS011;7255;53.596;9.960;2023-01-26T13:44:25;22.77;;;8.50;;
14342;SDS011;7255;53.596;9.960;2023-01-26T13:47:00;20.10;;;8.90;;
14342;SDS011;7255;53.596;9.960;2023-01-26T13:49:35;15.53;;;8.40;;
14342;SDS011;7255;53.596;9.960;2023-01-26T13:52:11;17.23;;;8.07;;
14342;SDS011;7255;53.596;9.960;2023-01-26T13:54:42;17.57;;;8.63;;
14342;SDS011;7255;53.596;9.960;2023-01-26T13:57:09;16.70;;;8.57;;
14342;SDS011;7255;53.596;9.960;2023-01-26T13:59:46;12.00;;;7.80;;
14342;SDS011;7255;53.596;9.960;2023-01-26T14:02:20;18.20;;;8.77;;
14342;SDS011;7255;53.596;9.960;2023-01-26T14:04:49;15.60;;;8.60;;
14342;SDS011;7255;53.596;9.960;2023-01-26T14:07:22;18.47;;;9.23;;
14342;SDS011;7255;53.596;9.960;2023-01-26T14:09:51;17.10;;;9.27;;
14342;SDS011;7255;53.596;9.960;2023-01-26T14:12:20;19.73;;;9.17;;
14342;SDS011;7255;53.596;9.960;2023-01-26T14:14:49;16.97;;;8.30;;
14342;SDS011;7255;53.596;9.960;2023-01-26T14:17:23;15.80;;;9.07;;
14342;SDS011;7255;53.596;9.960;2023-01-26T14:19:51;18.17;;;9.30;;
14342;SDS011;7255;53.596;9.960;2023-01-26T14:22:19;16.37;;;8.57;;
14342;SDS011;7255;53.596;9.960;2023-01-26T14:24:46;15.23;;;8.70;;
14342;SDS011;7255;53.596;9.960;2023-01-26T14:27:26;17.23;;;9.50;;
14342;SDS011;7255;53.596;9.960;2023-01-26T14:29:56;18.67;;;9.37;;
14342;SDS011;7255;53.596;9.960;2023-01-26T14:32:23;18.27;;;9.50;;
14342;SDS011;7255;53.596;9.960;2023-01-26T14:34:54;16.93;;;9.47;;
14342;SDS011;7255;53.596;9.960;2023-01-26T14:37:23;19.73;;;9.50;;
14342;SDS011;7255;53.596;9.960;2023-01-26T14:42:48;19.87;;;8.70;;
14342;SDS011;7255;53.596;9.960;2023-01-26T14:45:17;17.70;;;9.57;;
14342;SDS011;7255;53.596;9.960;2023-01-26T14:47:51;20.20;;;9.47;;
14342;SDS011;7255;53.596;9.960;2023-01-26T14:50:20;21.27;;;8.83;;
14342;SDS011;7255;53.596;9.960;2023-01-26T14:52:52;25.77;;;10.10;;
14342;SDS011;7255;53.596;9.960;2023-01-26T14:55:20;21.10;;;10.37;;
14342;SDS011;7255;53.596;9.960;2023-01-26T14:57:51;27.23;;;11.70;;
14342;SDS011;7255;53.596;9.960;2023-01-26T15:00:19;18.90;;;9.47;;
14342;SDS011;7255;53.596;9.960;2023-01-26T15:02:51;19.70;;;10.17;;
14342;SDS011;7255;53.596;9.960;2023-01-26T15:05:19;22.57;;;11.37;;
14342;SDS011;7255;53.596;9.960;2023-01-26T15:07:47;17.53;;;9.50;;
14342;SDS011;7255;53.596;9.960;2023-01-26T15:10:29;20.53;;;12.00;;
14342;SDS011;7255;53.596;9.960;2023-01-26T15:13:00;22.87;;;12.33;;
14342;SDS011;7255;53.596;9.960;2023-01-26T15:15:29;18.13;;;11.27;;
14342;SDS011;7255;53.596;9.960;2023-01-26T15:18:02;18.70;;;10.63;;
14342;SDS011;7255;53.596;9.960;2023-01-26T15:20:40;20.67;;;10.90;;
14342;SDS011;7255;53.596;9.960;2023-01-26T15:23:22;16.93;;;10.67;;
14342;SDS011;7255;53.596;9.960;2023-01-26T15:25:52;21.50;;;10.93;;
14342;SDS011;7255;53.596;9.960;2023-01-26T15:28:21;21.87;;;10.57;;
14342;SDS011;7255;53.596;9.960;2023-01-26T15:30:51;20.37;;;11.20;;
14342;SDS011;7255;53.596;9.960;2023-01-26T15:36:16;24.37;;;11.73;;
14342;SDS011;7255;53.596;9.960;2023-01-26T15:38:46;22.77;;;11.43;;
14342;SDS011;7255;53.596;9.960;2023-01-26T15:41:13;22.93;;;11.13;;
14342;SDS011;7255;53.596;9.960;2023-01-26T15:43:40;24.43;;;11.43;;